createdAt,value
2023-01-18T00:00:17.709Z,11.20
2023-01-18T00:01:17.632Z,11.30
2023-01-18T00:02:17.668Z,11.20
2023-01-18T00:03:17.626Z,11.10
2023-01-18T00:04:17.625Z,11.60
2023-01-18T00:05:17.633Z,10.50
2023-01-18T00:06:17.623Z,11.40
2023-01-18T00:07:17.601Z,10.80
2023-01-18T00:08:17.571Z,11.20
2023-01-18T00:09:17.551Z,10.80
2023-01-18T00:10:17.606Z,10.70
2023-01-18T00:11:17.535Z,11.00
2023-01-18T00:12:17.533Z,10.80
2023-01-18T00:13:17.500Z,10.70
2023-01-18T00:14:17.520Z,9.80
2023-01-18T00:15:17.502Z,10.90
2023-01-18T00:16:17.520Z,10.50
2023-01-18T00:17:17.457Z,11.10
2023-01-18T00:18:17.484Z,11.00
2023-01-18T00:19:17.434Z,10.30
2023-01-18T00:20:17.487Z,10.50
2023-01-18T00:21:17.459Z,10.60
2023-01-18T00:22:17.432Z,10.60
2023-01-18T00:23:17.413Z,10.60
2023-01-18T00:24:17.412Z,10.80
2023-01-18T00:25:17.378Z,10.80
2023-01-18T00:26:17.407Z,11.50
2023-01-18T00:27:17.349Z,11.50
2023-01-18T00:28:17.379Z,11.70
2023-01-18T00:29:17.331Z,12.00
2023-01-18T00:30:17.394Z,12.40
2023-01-18T00:31:17.318Z,11.70
2023-01-18T00:32:17.325Z,13.10
2023-01-18T00:33:17.305Z,12.80
2023-01-18T00:34:17.299Z,13.30
2023-01-18T00:35:17.304Z,13.00
2023-01-18T00:36:17.295Z,12.70
2023-01-18T00:37:17.237Z,13.10
2023-01-18T00:38:17.264Z,12.50
2023-01-18T00:39:17.234Z,12.40
2023-01-18T00:40:17.249Z,12.90
2023-01-18T00:41:17.210Z,12.80
2023-01-18T00:42:17.260Z,11.80
2023-01-18T00:43:17.181Z,11.90
2023-01-18T00:44:17.184Z,10.90
2023-01-18T00:45:17.171Z,11.70
2023-01-18T00:46:17.187Z,10.90
2023-01-18T00:47:17.143Z,12.30
2023-01-18T00:48:17.140Z,12.40
2023-01-18T00:49:17.106Z,11.30
2023-01-18T00:50:17.133Z,11.10
2023-01-18T00:51:17.101Z,11.50
2023-01-18T00:52:17.177Z,10.90
2023-01-18T00:53:17.077Z,10.90
2023-01-18T00:54:17.073Z,10.90
2023-01-18T00:55:17.053Z,10.30
2023-01-18T00:56:17.103Z,10.40
2023-01-18T00:57:17.041Z,10.40
2023-01-18T00:58:17.057Z,10.20
2023-01-18T00:59:17.070Z,10.10
2023-01-18T01:00:17.032Z,9.80
2023-01-18T01:01:17.144Z,9.90
2023-01-18T01:02:17.029Z,10.60
2023-01-18T01:03:16.983Z,9.70
2023-01-18T01:04:17.002Z,9.60
2023-01-18T01:05:16.957Z,10.00
2023-01-18T01:06:16.983Z,9.80
2023-01-18T01:07:16.930Z,10.40
2023-01-18T01:08:17.298Z,10.00
2023-01-18T01:09:16.913Z,9.50
2023-01-18T01:10:16.926Z,9.20
2023-01-18T01:11:16.907Z,10.20
2023-01-18T01:12:16.930Z,10.10
2023-01-18T01:13:16.871Z,9.30
2023-01-18T01:14:16.921Z,9.60
2023-01-18T01:15:16.866Z,9.90
2023-01-18T01:16:16.865Z,9.80
2023-01-18T01:17:16.810Z,9.70
2023-01-18T01:18:16.854Z,9.80
2023-01-18T01:19:16.831Z,9.60
2023-01-18T01:20:16.803Z,9.80
2023-01-18T01:21:16.805Z,9.50
2023-01-18T01:22:16.805Z,9.70
2023-01-18T01:23:16.764Z,9.60
2023-01-18T01:24:16.803Z,10.10
2023-01-18T01:25:16.739Z,9.60
2023-01-18T01:26:16.743Z,9.50
2023-01-18T01:27:16.700Z,9.30
2023-01-18T01:28:16.715Z,9.50
2023-01-18T01:29:16.754Z,9.60
2023-01-18T01:30:16.710Z,9.80
2023-01-18T01:31:16.667Z,9.50
2023-01-18T01:32:16.686Z,9.50
2023-01-18T01:33:16.682Z,9.30
2023-01-18T01:34:16.664Z,10.00
2023-01-18T01:35:16.627Z,9.70
2023-01-18T01:36:16.643Z,9.60
2023-01-18T01:37:16.627Z,9.70
2023-01-18T01:38:16.627Z,9.00
2023-01-18T01:39:16.587Z,9.00
2023-01-18T01:40:16.609Z,9.90
2023-01-18T01:41:16.576Z,10.10
2023-01-18T01:42:16.587Z,10.10
2023-01-18T01:43:16.580Z,10.20
2023-01-18T01:44:16.593Z,10.30
2023-01-18T01:45:16.526Z,10.20
2023-01-18T01:46:16.550Z,9.80
2023-01-18T01:47:16.506Z,9.90
2023-01-18T01:48:16.562Z,10.20
2023-01-18T01:49:16.508Z,10.70
2023-01-18T01:50:16.495Z,9.80
2023-01-18T01:51:16.476Z,9.70
2023-01-18T01:52:16.475Z,9.60
2023-01-18T01:53:16.430Z,9.50
2023-01-18T01:54:16.437Z,10.00
2023-01-18T01:55:16.419Z,10.10
2023-01-18T01:56:16.424Z,9.60
2023-01-18T01:57:16.455Z,10.40
2023-01-18T01:58:16.416Z,8.60
2023-01-18T01:59:16.458Z,10.20
2023-01-18T02:00:16.392Z,10.10
2023-01-18T02:01:16.416Z,9.50
2023-01-18T02:02:16.392Z,9.60
2023-01-18T02:03:16.338Z,9.70
2023-01-18T02:04:16.354Z,9.90
2023-01-18T02:05:16.319Z,10.40
2023-01-18T02:06:16.351Z,10.00
2023-01-18T02:07:16.284Z,10.90
2023-01-18T02:08:16.303Z,10.40
2023-01-18T02:09:16.267Z,10.70
2023-01-18T02:10:16.293Z,10.00
2023-01-18T02:11:16.242Z,9.50
2023-01-18T02:12:16.319Z,11.00
2023-01-18T02:13:16.239Z,9.60
2023-01-18T02:14:16.245Z,11.00
2023-01-18T02:15:17.010Z,10.60
2023-01-18T02:16:16.213Z,10.50
2023-01-18T02:17:16.181Z,11.10
2023-01-18T02:18:16.192Z,10.70
2023-01-18T02:19:16.174Z,10.50
2023-01-18T02:20:16.181Z,11.10
2023-01-18T02:21:16.161Z,10.50
2023-01-18T02:22:16.141Z,11.10
2023-01-18T02:23:16.122Z,10.60
2023-01-18T02:24:16.134Z,11.10
2023-01-18T02:25:16.114Z,10.20
2023-01-18T02:26:16.119Z,9.90
2023-01-18T02:27:23.647Z,10.70
2023-01-18T02:28:16.074Z,11.00
2023-01-18T02:29:16.054Z,10.40
2023-01-18T02:30:16.072Z,9.70
2023-01-18T02:31:16.034Z,9.90
2023-01-18T02:32:16.037Z,10.10
2023-01-18T02:33:16.013Z,10.60
2023-01-18T02:34:16.011Z,10.10
2023-01-18T02:35:16.012Z,10.20
2023-01-18T02:36:16.000Z,11.00
2023-01-18T02:37:15.993Z,10.00
2023-01-18T02:38:15.996Z,10.10
2023-01-18T02:39:15.936Z,10.10
2023-01-18T02:40:15.952Z,10.20
2023-01-18T02:41:15.943Z,10.00
2023-01-18T02:42:15.935Z,10.40
2023-01-18T02:43:15.898Z,10.00
2023-01-18T02:44:15.971Z,10.70
2023-01-18T02:45:15.878Z,10.10
2023-01-18T02:46:15.992Z,11.00
2023-01-18T02:47:15.893Z,11.60
2023-01-18T02:48:15.857Z,10.70
2023-01-18T02:49:15.831Z,11.30
2023-01-18T02:50:15.831Z,10.70
2023-01-18T02:51:15.831Z,10.30
2023-01-18T02:52:15.856Z,10.40
2023-01-18T02:53:15.795Z,10.10
2023-01-18T02:54:15.832Z,10.20
2023-01-18T02:55:15.763Z,9.80
2023-01-18T02:56:15.769Z,10.60
2023-01-18T02:57:15.784Z,11.00
2023-01-18T02:58:15.899Z,10.80
2023-01-18T02:59:15.711Z,10.10
2023-01-18T03:00:15.750Z,10.20
2023-01-18T03:01:15.840Z,10.30
2023-01-18T03:02:15.724Z,11.20
2023-01-18T03:03:15.730Z,10.90
2023-01-18T03:04:15.719Z,10.40
2023-01-18T03:05:15.670Z,10.10
2023-01-18T03:06:15.659Z,11.50
2023-01-18T03:07:15.662Z,10.80
2023-01-18T03:08:15.682Z,10.10
2023-01-18T03:09:15.607Z,11.40
2023-01-18T03:10:15.625Z,10.60
2023-01-18T03:11:15.598Z,10.40
2023-01-18T03:12:15.588Z,10.40
2023-01-18T03:13:15.565Z,10.40
2023-01-18T03:14:15.604Z,10.60
2023-01-18T03:15:15.538Z,10.20
2023-01-18T03:16:15.547Z,10.70
2023-01-18T03:17:15.509Z,10.60
2023-01-18T03:18:15.577Z,10.80
2023-01-18T03:19:15.522Z,11.30
2023-01-18T03:20:15.517Z,10.90
2023-01-18T03:21:15.478Z,11.10
2023-01-18T03:22:15.486Z,10.20
2023-01-18T03:23:15.454Z,11.10
2023-01-18T03:24:15.484Z,10.60
2023-01-18T03:25:15.446Z,10.80
2023-01-18T03:26:15.455Z,11.00
2023-01-18T03:27:15.454Z,11.00
2023-01-18T03:28:15.418Z,11.00
2023-01-18T03:29:15.388Z,11.30
2023-01-18T03:30:15.416Z,10.60
2023-01-18T03:31:15.476Z,11.10
2023-01-18T03:32:15.382Z,11.00
2023-01-18T03:33:15.353Z,11.00
2023-01-18T03:34:15.361Z,10.90
2023-01-18T03:35:15.331Z,9.90
2023-01-18T03:36:15.363Z,10.10
2023-01-18T03:37:15.303Z,10.10
2023-01-18T03:38:15.305Z,10.20
2023-01-18T03:39:15.283Z,10.70
2023-01-18T03:40:15.320Z,9.60
2023-01-18T03:41:15.271Z,10.00
2023-01-18T03:42:15.271Z,9.80
2023-01-18T03:43:15.255Z,10.20
2023-01-18T03:44:15.240Z,10.50
2023-01-18T03:45:15.203Z,10.30
2023-01-18T03:46:15.258Z,9.90
2023-01-18T03:47:15.216Z,10.80
2023-01-18T03:48:15.225Z,10.30
2023-01-18T03:49:15.171Z,10.20
2023-01-18T03:50:15.180Z,9.50
2023-01-18T03:51:15.170Z,9.60
2023-01-18T03:52:15.223Z,9.80
2023-01-18T03:53:15.136Z,10.80
2023-01-18T03:54:15.149Z,9.50
2023-01-18T03:55:15.111Z,10.20
2023-01-18T03:56:15.109Z,9.70
2023-01-18T03:57:15.080Z,10.10
2023-01-18T03:58:15.129Z,9.60
2023-01-18T03:59:15.102Z,10.70
2023-01-18T04:00:15.057Z,9.80
2023-01-18T04:01:15.123Z,9.50
2023-01-18T04:02:15.081Z,9.00
2023-01-18T04:03:15.058Z,9.50
2023-01-18T04:04:15.040Z,9.50
2023-01-18T04:05:15.013Z,9.60
2023-01-18T04:06:15.014Z,9.70
2023-01-18T04:07:14.971Z,9.60
2023-01-18T04:08:15.037Z,9.70
2023-01-18T04:09:14.946Z,10.40
2023-01-18T04:10:14.962Z,11.00
2023-01-18T04:11:14.949Z,10.50
2023-01-18T04:12:14.935Z,10.00
2023-01-18T04:13:14.947Z,9.30
2023-01-18T04:14:14.979Z,10.70
2023-01-18T04:15:14.910Z,10.10
2023-01-18T04:16:14.945Z,9.70
2023-01-18T04:17:14.887Z,9.90
2023-01-18T04:18:15.038Z,9.50
2023-01-18T04:19:14.876Z,10.10
2023-01-18T04:20:14.869Z,10.20
2023-01-18T04:21:14.860Z,9.80
2023-01-18T04:22:14.827Z,9.50
2023-01-18T04:23:14.824Z,9.90
2023-01-18T04:24:14.808Z,10.90
2023-01-18T04:25:14.816Z,9.40
2023-01-18T04:26:15.259Z,9.60
2023-01-18T04:27:14.776Z,9.60
2023-01-18T04:28:14.763Z,10.20
2023-01-18T04:29:14.773Z,9.40
2023-01-18T04:30:14.738Z,9.80
2023-01-18T04:31:14.875Z,10.00
2023-01-18T04:32:14.708Z,9.80
2023-01-18T04:33:14.716Z,9.70
2023-01-18T04:34:14.704Z,10.00
2023-01-18T04:35:14.727Z,10.00
2023-01-18T04:36:14.683Z,10.50
2023-01-18T04:37:14.663Z,9.70
2023-01-18T04:38:14.679Z,10.50
2023-01-18T04:39:14.664Z,10.40
2023-01-18T04:40:14.651Z,11.30
2023-01-18T04:41:14.633Z,11.60
2023-01-18T04:42:14.608Z,12.10
2023-01-18T04:43:14.659Z,10.80
2023-01-18T04:44:14.570Z,11.00
2023-01-18T04:45:14.605Z,11.00
2023-01-18T04:46:14.647Z,10.90
2023-01-18T04:47:14.601Z,11.30
2023-01-18T04:48:14.537Z,12.10
2023-01-18T04:49:14.569Z,11.20
2023-01-18T04:50:14.533Z,11.10
2023-01-18T04:51:14.536Z,11.70
2023-01-18T04:52:14.499Z,11.60
2023-01-18T04:53:14.499Z,11.60
2023-01-18T04:54:14.468Z,11.70
2023-01-18T04:55:14.478Z,11.00
2023-01-18T04:56:14.431Z,12.30
2023-01-18T04:57:14.450Z,11.20
2023-01-18T04:58:14.439Z,11.10
2023-01-18T04:59:14.438Z,11.40
2023-01-18T05:00:14.401Z,10.80
2023-01-18T05:01:14.590Z,10.10
2023-01-18T05:02:14.535Z,9.90
2023-01-18T05:03:14.405Z,10.40
2023-01-18T05:04:14.376Z,10.50
2023-01-18T05:05:14.381Z,10.40
2023-01-18T05:06:14.347Z,10.60
2023-01-18T05:07:14.988Z,10.90
2023-01-18T05:08:14.305Z,11.00
2023-01-18T05:09:14.357Z,12.30
2023-01-18T05:10:14.291Z,11.70
2023-01-18T05:11:14.299Z,11.30
2023-01-18T05:12:14.295Z,10.80
2023-01-18T05:13:14.282Z,11.10
2023-01-18T05:14:14.235Z,11.20
2023-01-18T05:15:14.297Z,11.60
2023-01-18T05:16:14.286Z,10.50
2023-01-18T05:17:14.250Z,10.70
2023-01-18T05:18:14.256Z,11.10
2023-01-18T05:19:14.209Z,10.50
2023-01-18T05:20:14.184Z,11.30
2023-01-18T05:21:14.218Z,12.70
2023-01-18T05:22:14.159Z,12.00
2023-01-18T05:23:14.193Z,10.90
2023-01-18T05:24:14.136Z,11.80
2023-01-18T05:25:14.200Z,11.70
2023-01-18T05:26:14.118Z,12.00
2023-01-18T05:27:14.444Z,11.30
2023-01-18T05:28:14.147Z,11.20
2023-01-18T05:29:14.115Z,11.00
2023-01-18T05:30:14.093Z,10.30
2023-01-18T05:31:14.136Z,10.60
2023-01-18T05:32:14.109Z,11.10
2023-01-18T05:33:14.067Z,10.90
2023-01-18T05:34:14.043Z,10.60
2023-01-18T05:35:14.052Z,11.80
2023-01-18T05:36:14.050Z,11.30
2023-01-18T05:37:14.047Z,11.50
2023-01-18T05:38:13.995Z,10.30
2023-01-18T05:39:14.018Z,11.10
2023-01-18T05:40:13.956Z,11.40
2023-01-18T05:41:14.027Z,11.60
2023-01-18T05:42:13.953Z,11.10
2023-01-18T05:43:13.950Z,11.30
2023-01-18T05:44:13.911Z,10.80
2023-01-18T05:45:13.982Z,11.80
2023-01-18T05:46:13.957Z,11.00
2023-01-18T05:47:13.901Z,11.50
2023-01-18T05:48:13.948Z,11.50
2023-01-18T05:49:13.883Z,11.50
2023-01-18T05:50:13.850Z,10.80
2023-01-18T05:51:13.852Z,11.70
2023-01-18T05:52:13.870Z,11.90
2023-01-18T05:53:13.843Z,12.50
2023-01-18T05:54:13.819Z,13.50
2023-01-18T05:55:13.836Z,12.60
2023-01-18T05:56:19.428Z,12.80
2023-01-18T05:57:13.790Z,12.50
2023-01-18T05:58:13.768Z,11.50
2023-01-18T05:59:13.768Z,12.10
2023-01-18T06:00:13.747Z,12.00
2023-01-18T06:01:13.822Z,12.80
2023-01-18T06:02:13.846Z,12.70
2023-01-18T06:03:13.744Z,11.50
2023-01-18T06:04:13.759Z,12.00
2023-01-18T06:05:13.718Z,11.10
2023-01-18T06:06:13.676Z,11.90
2023-01-18T06:07:13.686Z,11.30
2023-01-18T06:08:13.660Z,11.80
2023-01-18T06:09:13.656Z,11.60
2023-01-18T06:10:13.646Z,11.50
2023-01-18T06:11:13.735Z,11.60
2023-01-18T06:12:13.615Z,12.20
2023-01-18T06:13:13.967Z,12.30
2023-01-18T06:14:13.594Z,12.10
2023-01-18T06:15:13.728Z,11.70
2023-01-18T06:16:13.698Z,12.80
2023-01-18T06:17:13.755Z,12.50
2023-01-18T06:18:13.575Z,12.00
2023-01-18T06:19:13.554Z,12.00
2023-01-18T06:20:13.527Z,12.30
2023-01-18T06:21:13.567Z,11.60
2023-01-18T06:22:13.520Z,11.80
2023-01-18T06:23:13.531Z,12.30
2023-01-18T06:24:14.421Z,11.70
2023-01-18T06:25:13.516Z,11.80
2023-01-18T06:26:13.621Z,12.90
2023-01-18T06:27:13.492Z,10.90
2023-01-18T06:28:13.463Z,13.00
2023-01-18T06:29:14.175Z,11.20
2023-01-18T06:30:13.431Z,11.50
2023-01-18T06:31:13.422Z,12.00
2023-01-18T06:32:13.458Z,10.80
2023-01-18T06:33:13.410Z,11.50
2023-01-18T06:34:13.392Z,11.20
2023-01-18T06:35:13.407Z,12.40
2023-01-18T06:36:13.360Z,12.50
2023-01-18T06:37:13.404Z,11.40
2023-01-18T06:38:13.340Z,11.60
2023-01-18T06:39:13.351Z,12.00
2023-01-18T06:40:13.300Z,12.30
2023-01-18T06:41:13.327Z,12.20
2023-01-18T06:42:13.321Z,12.10
2023-01-18T06:43:13.320Z,11.90
2023-01-18T06:44:13.310Z,12.20
2023-01-18T06:45:13.279Z,11.40
2023-01-18T06:46:13.280Z,12.70
2023-01-18T06:47:13.259Z,12.30
2023-01-18T06:48:13.230Z,12.80
2023-01-18T06:49:13.478Z,13.30
2023-01-18T06:50:13.582Z,12.20
2023-01-18T06:51:13.241Z,13.10
2023-01-18T06:52:13.184Z,12.20
2023-01-18T06:53:13.188Z,14.20
2023-01-18T06:54:13.159Z,13.40
2023-01-18T06:55:14.098Z,14.30
2023-01-18T06:56:13.888Z,13.40
2023-01-18T06:57:13.149Z,14.10
2023-01-18T06:58:13.107Z,13.20
2023-01-18T06:59:13.139Z,12.90
2023-01-18T07:00:13.124Z,15.10
2023-01-18T07:01:13.229Z,13.90
2023-01-18T07:02:13.121Z,13.30
2023-01-18T07:03:13.137Z,13.80
2023-01-18T07:04:13.108Z,13.20
2023-01-18T07:05:13.067Z,12.40
2023-01-18T07:06:13.022Z,12.70
2023-01-18T07:07:13.092Z,13.30
2023-01-18T07:08:12.996Z,15.80
2023-01-18T07:09:13.053Z,21.70
2023-01-18T07:10:16.090Z,19.30
2023-01-18T07:11:13.005Z,16.10
2023-01-18T07:12:13.004Z,16.60
2023-01-18T07:13:12.967Z,18.90
2023-01-18T07:14:12.925Z,19.10
2023-01-18T07:15:21.651Z,18.30
2023-01-18T07:16:13.931Z,16.50
2023-01-18T07:17:12.957Z,16.60
2023-01-18T07:18:13.042Z,16.30
2023-01-18T07:19:12.904Z,16.10
2023-01-18T07:20:12.873Z,15.70
2023-01-18T07:21:15.160Z,17.20
2023-01-18T07:22:12.852Z,18.40
2023-01-18T07:23:12.855Z,17.40
2023-01-18T07:24:12.911Z,17.80
2023-01-18T07:25:12.852Z,18.00
2023-01-18T07:26:12.794Z,16.90
2023-01-18T07:27:12.842Z,16.70
2023-01-18T07:28:12.783Z,16.10
2023-01-18T07:29:13.533Z,17.00
2023-01-18T07:30:12.818Z,17.50
2023-01-18T07:31:12.773Z,17.40
2023-01-18T07:32:12.791Z,17.60
2023-01-18T07:33:12.753Z,16.50
2023-01-18T07:34:12.723Z,17.60
2023-01-18T07:35:12.725Z,16.90
2023-01-18T07:36:12.701Z,17.20
2023-01-18T07:37:12.715Z,17.50
2023-01-18T07:38:12.678Z,17.30
2023-01-18T07:39:12.702Z,17.40
2023-01-18T07:40:12.651Z,15.40
2023-01-18T07:41:12.675Z,18.40
2023-01-18T07:42:12.840Z,17.00
2023-01-18T07:43:12.661Z,18.10
2023-01-18T07:44:12.653Z,18.30
2023-01-18T07:45:12.631Z,17.70
2023-01-18T07:46:12.634Z,16.80
2023-01-18T07:47:12.596Z,17.20
2023-01-18T07:48:12.623Z,17.20
2023-01-18T07:49:12.612Z,17.40
2023-01-18T07:50:13.309Z,16.50
2023-01-18T07:51:13.535Z,17.70
2023-01-18T07:52:12.582Z,18.10
2023-01-18T07:53:12.540Z,17.70
2023-01-18T07:54:12.511Z,17.30
2023-01-18T07:55:12.565Z,16.10
2023-01-18T07:56:12.490Z,17.30
2023-01-18T07:57:12.486Z,17.40
2023-01-18T07:58:12.448Z,19.60
2023-01-18T07:59:12.472Z,18.40
2023-01-18T08:00:12.440Z,19.30
2023-01-18T08:01:12.684Z,19.10
2023-01-18T08:02:12.586Z,18.40
2023-01-18T08:03:12.503Z,18.30
2023-01-18T08:04:12.420Z,18.50
2023-01-18T08:05:12.397Z,17.60
2023-01-18T08:06:12.376Z,18.00
2023-01-18T08:07:12.445Z,17.50
2023-01-18T08:08:12.339Z,18.00
2023-01-18T08:09:12.372Z,18.40
2023-01-18T08:10:12.328Z,17.10
2023-01-18T08:11:13.095Z,18.10
2023-01-18T08:12:12.340Z,17.50
2023-01-18T08:13:12.325Z,17.40
2023-01-18T08:14:12.282Z,17.40
2023-01-18T08:15:12.337Z,17.20
2023-01-18T08:16:12.384Z,17.90
2023-01-18T08:17:12.309Z,18.80
2023-01-18T08:18:12.233Z,19.80
2023-01-18T08:19:12.252Z,18.10
2023-01-18T08:20:12.235Z,18.70
2023-01-18T08:21:12.236Z,19.10
2023-01-18T08:22:12.221Z,17.70
2023-01-18T08:23:12.249Z,18.00
2023-01-18T08:24:12.182Z,18.50
2023-01-18T08:25:12.183Z,18.30
2023-01-18T08:26:12.169Z,18.20
2023-01-18T08:27:12.157Z,17.80
2023-01-18T08:28:12.148Z,16.90
2023-01-18T08:29:12.160Z,16.40
2023-01-18T08:30:12.124Z,15.90
2023-01-18T08:31:12.145Z,15.50
2023-01-18T08:32:12.113Z,15.70
2023-01-18T08:33:12.103Z,16.60
2023-01-18T08:34:12.131Z,15.70
2023-01-18T08:35:12.073Z,16.20
2023-01-18T08:36:12.074Z,14.30
2023-01-18T08:37:12.020Z,15.00
2023-01-18T08:38:12.044Z,15.10
2023-01-18T08:39:12.027Z,15.40
2023-01-18T08:40:12.013Z,15.20
2023-01-18T08:41:12.002Z,15.70
2023-01-18T08:42:12.073Z,15.10
2023-01-18T08:43:12.044Z,15.30
2023-01-18T08:44:11.990Z,15.40
2023-01-18T08:45:11.950Z,15.80
2023-01-18T08:46:12.068Z,16.10
2023-01-18T08:47:11.952Z,15.90
2023-01-18T08:48:11.977Z,16.20
2023-01-18T08:49:11.899Z,16.10
2023-01-18T08:50:12.000Z,19.00
2023-01-18T08:51:11.870Z,19.60
2023-01-18T08:52:11.899Z,18.50
2023-01-18T08:53:11.851Z,18.10
2023-01-18T08:54:11.879Z,17.90
2023-01-18T08:55:11.848Z,18.10
2023-01-18T08:56:11.859Z,17.00
2023-01-18T08:57:11.822Z,17.10
2023-01-18T08:58:11.968Z,17.30
2023-01-18T08:59:11.846Z,21.10
2023-01-18T09:00:11.807Z,19.50
2023-01-18T09:01:12.094Z,19.10
2023-01-18T09:02:11.828Z,20.30
2023-01-18T09:03:11.819Z,20.20
2023-01-18T09:04:11.819Z,20.70
2023-01-18T09:05:11.754Z,18.40
2023-01-18T09:06:13.091Z,22.10
2023-01-18T09:07:11.739Z,23.80
2023-01-18T09:08:11.731Z,24.70
2023-01-18T09:09:11.698Z,24.90
2023-01-18T09:10:11.690Z,24.50
2023-01-18T09:11:12.114Z,20.70
2023-01-18T09:12:11.745Z,20.50
2023-01-18T09:13:11.643Z,21.60
2023-01-18T09:14:11.648Z,20.00
2023-01-18T09:15:11.698Z,19.50
2023-01-18T09:16:11.675Z,20.90
2023-01-18T09:17:11.701Z,19.60
2023-01-18T09:18:11.606Z,19.60
2023-01-18T09:19:11.563Z,19.00
2023-01-18T09:20:11.574Z,19.60
2023-01-18T09:21:11.587Z,20.20
2023-01-18T09:22:11.579Z,20.40
2023-01-18T09:23:11.552Z,19.50
2023-01-18T09:24:11.534Z,19.70
2023-01-18T09:25:11.523Z,18.80
2023-01-18T09:26:11.514Z,19.00
2023-01-18T09:27:11.481Z,19.10
2023-01-18T09:28:11.526Z,20.60
2023-01-18T09:29:11.443Z,20.00
2023-01-18T09:30:11.451Z,19.50
2023-01-18T09:31:11.475Z,19.00
2023-01-18T09:32:11.474Z,19.00
2023-01-18T09:33:11.413Z,18.10
2023-01-18T09:34:19.308Z,17.80
2023-01-18T09:35:12.393Z,17.90
2023-01-18T09:36:11.401Z,17.10
2023-01-18T09:37:11.374Z,16.40
2023-01-18T09:38:11.381Z,16.60
2023-01-18T09:39:11.341Z,15.70
2023-01-18T09:40:11.373Z,16.50
2023-01-18T09:41:11.331Z,16.70
2023-01-18T09:42:11.350Z,16.20
2023-01-18T09:43:11.302Z,16.50
2023-01-18T09:44:11.330Z,16.60
2023-01-18T09:45:11.272Z,16.80
2023-01-18T09:46:11.300Z,16.40
2023-01-18T09:47:11.272Z,15.80
2023-01-18T09:48:11.263Z,16.00
2023-01-18T09:49:11.221Z,14.90
2023-01-18T09:50:11.297Z,15.10
2023-01-18T09:51:11.208Z,15.20
2023-01-18T09:52:11.210Z,15.30
2023-01-18T09:53:11.179Z,15.10
2023-01-18T09:54:11.211Z,14.50
2023-01-18T09:55:11.162Z,14.60
2023-01-18T09:56:11.190Z,13.70
2023-01-18T09:57:11.149Z,14.00
2023-01-18T09:58:11.170Z,12.60
2023-01-18T09:59:11.109Z,13.60
2023-01-18T10:00:11.129Z,14.90
2023-01-18T10:01:11.291Z,14.20
2023-01-18T10:02:11.196Z,13.60
2023-01-18T10:03:11.087Z,14.50
2023-01-18T10:04:11.145Z,14.00
2023-01-18T10:05:11.038Z,14.00
2023-01-18T10:06:11.067Z,14.10
2023-01-18T10:07:11.016Z,14.30
2023-01-18T10:08:11.048Z,14.20
2023-01-18T10:09:11.035Z,14.20
2023-01-18T10:10:11.017Z,14.70
2023-01-18T10:11:10.989Z,13.30
2023-01-18T10:12:11.007Z,13.40
2023-01-18T10:13:11.013Z,13.40
2023-01-18T10:14:10.985Z,13.50
2023-01-18T10:15:10.937Z,12.60
2023-01-18T10:16:11.003Z,11.70
2023-01-18T10:17:10.951Z,11.50
2023-01-18T10:18:10.925Z,12.00
2023-01-18T10:19:10.938Z,11.80
2023-01-18T10:20:10.920Z,12.40
2023-01-18T10:21:11.065Z,12.00
2023-01-18T10:22:11.623Z,12.10
2023-01-18T10:23:10.847Z,11.40
2023-01-18T10:24:10.873Z,12.00
2023-01-18T10:25:10.832Z,12.10
2023-01-18T10:26:10.843Z,12.20
2023-01-18T10:27:10.843Z,11.70
2023-01-18T10:28:10.843Z,12.50
2023-01-18T10:29:10.805Z,12.40
2023-01-18T10:30:10.804Z,12.40
2023-01-18T10:31:10.796Z,11.70
2023-01-18T10:32:10.779Z,11.80
2023-01-18T10:33:10.782Z,11.70
2023-01-18T10:34:10.813Z,12.30
2023-01-18T10:35:10.734Z,11.40
2023-01-18T10:36:11.794Z,11.30
2023-01-18T10:37:10.712Z,11.50
2023-01-18T10:38:10.733Z,11.60
2023-01-18T10:39:10.727Z,12.10
2023-01-18T10:40:10.794Z,11.40
2023-01-18T10:41:10.662Z,11.70
2023-01-18T10:42:10.680Z,11.00
2023-01-18T10:43:11.043Z,10.80
2023-01-18T10:44:10.923Z,11.60
2023-01-18T10:45:10.633Z,11.50
2023-01-18T10:46:10.735Z,11.80
2023-01-18T10:47:10.800Z,11.00
2023-01-18T10:48:10.639Z,11.20
2023-01-18T10:49:10.624Z,12.00
2023-01-18T10:50:10.618Z,12.10
2023-01-18T10:51:10.553Z,11.50
2023-01-18T10:52:10.642Z,11.60
2023-01-18T10:53:10.530Z,12.00
2023-01-18T10:54:10.550Z,11.10
2023-01-18T10:55:10.501Z,12.10
2023-01-18T10:56:10.546Z,12.60
2023-01-18T10:57:10.472Z,13.00
2023-01-18T10:58:10.484Z,12.40
2023-01-18T10:59:10.526Z,13.50
2023-01-18T11:00:10.472Z,12.80
2023-01-18T11:01:10.545Z,12.50
2023-01-18T11:02:10.586Z,13.40
2023-01-18T11:03:10.461Z,11.30
2023-01-18T11:04:10.431Z,12.40
2023-01-18T11:05:10.448Z,11.80
2023-01-18T11:06:10.415Z,11.90
2023-01-18T11:07:10.504Z,11.70
2023-01-18T11:08:10.399Z,12.70
2023-01-18T11:09:10.349Z,12.70
2023-01-18T11:10:10.345Z,12.60
2023-01-18T11:11:10.332Z,12.90
2023-01-18T11:12:10.346Z,11.80
2023-01-18T11:13:10.317Z,11.90
2023-01-18T11:14:10.351Z,12.30
2023-01-18T11:15:10.287Z,12.10
2023-01-18T11:16:10.393Z,12.40
2023-01-18T11:17:10.247Z,11.80
2023-01-18T11:18:10.330Z,11.70
2023-01-18T11:19:10.244Z,12.90
2023-01-18T11:20:10.260Z,11.70
2023-01-18T11:21:10.272Z,12.60
2023-01-18T11:22:10.237Z,13.00
2023-01-18T11:23:11.050Z,12.10
2023-01-18T11:24:10.940Z,12.80
2023-01-18T11:25:10.194Z,12.30
2023-01-18T11:26:10.181Z,13.10
2023-01-18T11:27:10.161Z,12.10
2023-01-18T11:28:10.145Z,12.50
2023-01-18T11:29:10.152Z,12.30
2023-01-18T11:30:10.140Z,12.20
2023-01-18T11:31:10.129Z,11.60
2023-01-18T11:32:10.125Z,12.40
2023-01-18T11:33:10.066Z,11.80
2023-01-18T11:34:10.095Z,12.00
2023-01-18T11:35:10.081Z,11.90
2023-01-18T11:36:10.053Z,12.50
2023-01-18T11:37:10.018Z,11.80
2023-01-18T11:38:10.244Z,12.00
2023-01-18T11:39:10.016Z,12.40
2023-01-18T11:40:10.089Z,12.10
2023-01-18T11:41:09.974Z,12.60
2023-01-18T11:42:09.994Z,12.80
2023-01-18T11:43:09.986Z,12.40
2023-01-18T11:44:09.965Z,12.70
2023-01-18T11:45:10.331Z,12.50
2023-01-18T11:46:10.003Z,12.00
2023-01-18T11:47:09.925Z,12.60
2023-01-18T11:48:09.921Z,12.80
2023-01-18T11:49:09.887Z,12.80
2023-01-18T11:50:21.329Z,12.60
2023-01-18T11:51:10.872Z,12.10
2023-01-18T11:52:09.894Z,11.80
2023-01-18T11:53:09.935Z,12.50
2023-01-18T11:54:09.856Z,12.10
2023-01-18T11:55:09.816Z,12.20
2023-01-18T11:56:09.842Z,11.60
2023-01-18T11:57:09.833Z,11.90
2023-01-18T11:58:09.828Z,11.70
2023-01-18T11:59:09.803Z,11.60
2023-01-18T12:00:09.825Z,12.10
2023-01-18T12:01:09.783Z,11.80
2023-01-18T12:02:09.787Z,11.20
2023-01-18T12:03:09.787Z,12.20
2023-01-18T12:04:09.744Z,12.40
2023-01-18T12:05:09.721Z,12.00
2023-01-18T12:06:09.723Z,11.90
2023-01-18T12:07:09.705Z,12.90
2023-01-18T12:08:09.701Z,12.80
2023-01-18T12:09:09.690Z,12.50
2023-01-18T12:10:09.711Z,13.80
2023-01-18T12:11:09.639Z,13.40
2023-01-18T12:12:18.627Z,13.60
2023-01-18T12:13:10.688Z,12.30
2023-01-18T12:14:09.630Z,12.70
2023-01-18T12:15:09.587Z,13.30
2023-01-18T12:16:09.693Z,12.70
2023-01-18T12:17:09.590Z,13.60
2023-01-18T12:18:13.369Z,12.70
2023-01-18T12:19:09.565Z,12.80
2023-01-18T12:20:09.571Z,13.40
2023-01-18T12:21:09.518Z,12.40
2023-01-18T12:22:09.542Z,12.80
2023-01-18T12:23:09.562Z,12.40
2023-01-18T12:24:09.528Z,12.50
2023-01-18T12:25:10.310Z,13.40
2023-01-18T12:26:12.654Z,12.40
2023-01-18T12:27:10.269Z,12.70
2023-01-18T12:28:09.482Z,12.10
2023-01-18T12:29:09.438Z,12.60
2023-01-18T12:30:11.110Z,12.70
2023-01-18T12:31:09.456Z,13.20
2023-01-18T12:32:09.430Z,13.00
2023-01-18T12:33:09.378Z,12.30
2023-01-18T12:34:09.397Z,13.00
2023-01-18T12:35:22.998Z,13.20
2023-01-18T12:36:10.381Z,13.40
2023-01-18T12:37:09.339Z,13.10
2023-01-18T12:38:09.753Z,13.40
2023-01-18T12:39:09.334Z,12.60
2023-01-18T12:40:09.347Z,12.00
2023-01-18T12:41:09.296Z,11.90
2023-01-18T12:42:09.321Z,12.70
2023-01-18T12:43:09.270Z,11.80
2023-01-18T12:44:09.366Z,11.90
2023-01-18T12:45:10.122Z,12.60
2023-01-18T12:46:09.384Z,12.90
2023-01-18T12:47:09.253Z,12.00
2023-01-18T12:48:09.235Z,12.50
2023-01-18T12:49:09.224Z,12.80
2023-01-18T12:50:09.185Z,12.00
2023-01-18T12:51:09.263Z,12.00
2023-01-18T12:52:18.540Z,11.90
2023-01-18T12:53:10.177Z,12.20
2023-01-18T12:54:09.148Z,12.00
2023-01-18T12:55:09.174Z,12.60